createdAt,value
2022-09-23T00:02:16.637Z,19.80
2022-09-23T00:04:48.137Z,18.20
2022-09-23T00:07:19.559Z,15.60
2022-09-23T00:12:22.801Z,18.60
2022-09-23T00:14:54.357Z,16.40
2022-09-23T00:17:27.242Z,20.00
2022-09-23T00:19:58.789Z,18.10
2022-09-23T00:25:00.256Z,19.00
2022-09-23T00:27:33.147Z,22.20
2022-09-23T00:30:05.868Z,17.80
2022-09-23T00:32:37.984Z,18.40
2022-09-23T00:35:10.690Z,17.30
2022-09-23T00:37:42.562Z,17.30
2022-09-23T00:40:14.166Z,22.80
2022-09-23T00:42:51.122Z,18.80
2022-09-23T00:45:22.542Z,17.50
2022-09-23T00:47:57.780Z,19.30
2022-09-23T00:50:32.211Z,17.40
2022-09-23T00:53:06.634Z,18.50
2022-09-23T00:55:43.256Z,16.00
2022-09-23T00:58:19.416Z,19.70
2022-09-23T01:00:50.879Z,17.60
2022-09-23T01:03:23.004Z,17.40
2022-09-23T01:05:55.315Z,18.10
2022-09-23T01:08:28.468Z,21.00
2022-09-23T01:11:11.121Z,16.70
2022-09-23T01:13:54.384Z,18.20
2022-09-23T01:16:34.648Z,22.10
2022-09-23T01:19:24.041Z,19.10
2022-09-23T01:22:05.810Z,16.00
2022-09-23T01:24:59.513Z,20.00
2022-09-23T01:27:42.957Z,17.70
2022-09-23T01:30:46.311Z,16.10
2022-09-23T01:33:26.266Z,16.10
2022-09-23T01:36:11.729Z,15.90
2022-09-23T01:38:53.671Z,19.40
2022-09-23T01:41:43.949Z,21.00
2022-09-23T01:44:22.916Z,14.00
2022-09-23T01:46:58.093Z,15.00
2022-09-23T01:49:34.728Z,15.20
2022-09-23T01:52:38.732Z,17.50
2022-09-23T01:55:17.194Z,16.50
2022-09-23T01:57:56.253Z,13.50
2022-09-23T02:00:30.657Z,15.30
2022-09-23T02:03:05.893Z,17.80
2022-09-23T02:05:44.012Z,16.40
2022-09-23T02:08:19.172Z,24.10
2022-09-23T02:10:56.180Z,35.50
2022-09-23T02:13:32.622Z,19.70
2022-09-23T02:16:11.800Z,21.00
2022-09-23T02:18:48.626Z,25.40
2022-09-23T02:21:24.381Z,16.20
2022-09-23T02:24:03.133Z,41.90
2022-09-23T02:26:38.404Z,42.00
2022-09-23T02:29:19.498Z,27.90
2022-09-23T02:31:59.089Z,43.30
2022-09-23T02:34:43.874Z,31.50
2022-09-23T02:37:24.726Z,22.60
2022-09-23T02:40:02.930Z,48.50
2022-09-23T02:42:41.193Z,25.40
2022-09-23T02:45:12.644Z,43.00
2022-09-23T02:47:47.754Z,86.20
2022-09-23T02:50:19.548Z,17.60
2022-09-23T02:52:51.518Z,28.50
2022-09-23T02:55:26.236Z,18.80
2022-09-23T02:57:57.967Z,33.30
2022-09-23T03:00:36.411Z,22.10
2022-09-23T03:03:24.117Z,22.30
2022-09-23T03:05:59.671Z,19.90
2022-09-23T03:08:44.650Z,18.50
2022-09-23T03:11:17.595Z,20.00
2022-09-23T03:14:05.113Z,19.30
2022-09-23T03:16:43.713Z,22.00
2022-09-23T03:19:24.467Z,24.50
2022-09-23T03:22:05.347Z,53.70
2022-09-23T03:24:39.995Z,16.50
2022-09-23T03:27:16.549Z,23.40
2022-09-23T03:29:50.070Z,44.10
2022-09-23T03:32:24.377Z,40.80
2022-09-23T03:34:58.860Z,32.60
2022-09-23T03:37:34.844Z,79.60
2022-09-23T03:40:14.680Z,25.80
2022-09-23T03:42:48.982Z,25.40
2022-09-23T03:45:23.769Z,40.00
2022-09-23T03:47:55.713Z,34.70
2022-09-23T03:50:27.552Z,27.00
2022-09-23T03:52:59.586Z,25.70
2022-09-23T03:55:32.133Z,50.80
2022-09-23T03:58:04.754Z,39.90
2022-09-23T04:00:37.148Z,28.10
2022-09-23T04:03:11.762Z,96.90
2022-09-23T04:05:43.534Z,94.80
2022-09-23T04:08:14.986Z,68.80
2022-09-23T04:10:46.971Z,119.10
2022-09-23T04:13:19.256Z,42.30
2022-09-23T04:15:53.473Z,34.00
2022-09-23T04:18:25.096Z,126.50
2022-09-23T04:23:31.565Z,175.50
2022-09-23T04:26:02.954Z,40.80
2022-09-23T04:28:34.413Z,44.40
2022-09-23T04:31:09.357Z,32.90
2022-09-23T04:33:41.073Z,210.70
2022-09-23T04:36:12.623Z,214.00
2022-09-23T04:38:45.977Z,197.60
2022-09-23T04:41:18.876Z,176.00
2022-09-23T04:43:50.343Z,179.70
2022-09-23T04:46:21.885Z,139.80
2022-09-23T04:51:25.772Z,123.30
2022-09-23T04:53:57.689Z,164.10
2022-09-23T04:56:32.561Z,150.10
2022-09-23T04:59:04.163Z,142.90
2022-09-23T05:04:14.091Z,87.10
2022-09-23T05:06:45.805Z,57.70
2022-09-23T05:14:20.131Z,77.40
2022-09-23T05:19:22.220Z,26.40
2022-09-23T05:21:53.670Z,32.40
2022-09-23T05:24:26.222Z,40.20
2022-09-23T05:26:57.720Z,131.90
2022-09-23T05:31:59.833Z,258.60
2022-09-23T05:34:32.262Z,101.60
2022-09-23T05:37:04.377Z,69.60
2022-09-23T05:39:35.805Z,163.50
2022-09-23T05:42:07.973Z,338.70
2022-09-23T05:44:40.118Z,87.40
2022-09-23T05:47:11.582Z,120.00
2022-09-23T05:49:59.271Z,58.30
2022-09-23T05:52:31.533Z,62.40
2022-09-23T05:55:03.245Z,84.20
2022-09-23T05:57:34.765Z,38.10
2022-09-23T06:00:10.531Z,50.50
2022-09-23T06:02:43.546Z,33.70
2022-09-23T06:05:15.720Z,29.20
2022-09-23T06:07:47.159Z,28.00
2022-09-23T06:10:18.942Z,68.30
2022-09-23T06:12:50.436Z,78.00
2022-09-23T06:15:21.907Z,70.90
2022-09-23T06:17:53.357Z,41.20
2022-09-23T06:20:24.796Z,33.50
2022-09-23T06:22:58.149Z,26.70
2022-09-23T06:25:29.634Z,31.00
2022-09-23T06:28:01.156Z,25.10
2022-09-23T06:33:03.031Z,45.40
2022-09-23T06:38:06.605Z,48.90
2022-09-23T06:40:38.281Z,35.50
2022-09-23T06:45:39.818Z,33.40
2022-09-23T06:48:11.447Z,53.40
2022-09-23T06:53:13.429Z,50.00
2022-09-23T06:55:45.378Z,33.30
2022-09-23T06:58:17.044Z,28.60
2022-09-23T07:00:48.471Z,34.30
2022-09-23T07:03:20.949Z,26.70
2022-09-23T07:05:57.005Z,39.70
2022-09-23T07:08:30.281Z,34.70
2022-09-23T07:11:03.283Z,31.50
2022-09-23T07:13:37.017Z,29.40
2022-09-23T07:16:09.611Z,33.20
2022-09-23T07:18:41.483Z,31.30
2022-09-23T07:23:48.290Z,34.50
2022-09-23T07:26:20.851Z,31.60
2022-09-23T07:28:56.389Z,39.60
2022-09-23T07:31:38.722Z,30.20
2022-09-23T07:34:12.152Z,28.40
2022-09-23T07:36:43.955Z,28.10
2022-09-23T07:41:45.694Z,25.80
2022-09-23T07:44:17.928Z,24.50
2022-09-23T07:46:50.020Z,24.40
2022-09-23T07:49:21.569Z,21.30
2022-09-23T07:54:25.480Z,20.10
2022-09-23T07:56:57.112Z,17.90
2022-09-23T07:59:28.656Z,17.60
2022-09-23T08:04:33.143Z,15.00
2022-09-23T08:07:06.721Z,12.80
2022-09-23T08:09:41.842Z,12.20
2022-09-23T08:12:16.454Z,14.90
2022-09-23T08:14:47.970Z,12.80
2022-09-23T08:19:49.361Z,12.30
2022-09-23T08:24:53.034Z,10.90
2022-09-23T08:27:28.078Z,10.30
2022-09-23T08:29:59.581Z,9.90
2022-09-23T08:32:31.755Z,9.00
2022-09-23T08:35:03.216Z,9.30
2022-09-23T08:40:05.268Z,7.20
2022-09-23T08:42:40.073Z,8.10
2022-09-23T08:45:18.473Z,7.50
2022-09-23T08:47:54.871Z,7.60
2022-09-23T08:50:29.809Z,6.30
2022-09-23T08:53:04.516Z,7.20
2022-09-23T08:55:42.680Z,6.50
2022-09-23T08:58:30.909Z,6.00
2022-09-23T09:01:11.603Z,6.90
2022-09-23T09:03:50.491Z,6.50
2022-09-23T09:06:27.059Z,7.10
2022-09-23T09:09:02.108Z,6.70
2022-09-23T09:11:38.122Z,7.30
2022-09-23T09:14:19.566Z,7.00
2022-09-23T09:19:56.713Z,6.40
2022-09-23T09:22:42.909Z,5.60
2022-09-23T09:25:24.835Z,6.10
2022-09-23T09:27:58.413Z,7.00
2022-09-23T09:30:30.587Z,9.50
2022-09-23T09:33:06.806Z,6.70
2022-09-23T09:35:43.322Z,5.60
2022-09-23T09:38:15.273Z,5.00
2022-09-23T09:40:49.688Z,5.70
2022-09-23T09:43:23.352Z,6.60
2022-09-23T09:46:08.312Z,7.60
2022-09-23T09:48:50.731Z,398.40
2022-09-23T09:51:24.824Z,191.00
2022-09-23T09:54:16.226Z,15.10
2022-09-23T09:59:29.278Z,6.10
2022-09-23T10:05:04.663Z,5.90
2022-09-23T10:07:36.821Z,5.80
2022-09-23T10:10:36.501Z,5.80
2022-09-23T10:13:20.540Z,7.50
2022-09-23T10:15:54.756Z,6.80
2022-09-23T10:18:33.575Z,5.70
2022-09-23T10:21:12.096Z,5.50
2022-09-23T10:23:46.441Z,5.00
2022-09-23T10:26:18.417Z,4.70
2022-09-23T10:28:51.863Z,5.40
2022-09-23T10:31:26.684Z,4.30
2022-09-23T10:34:00.668Z,3.80
2022-09-23T10:36:33.884Z,3.60
2022-09-23T10:39:24.841Z,4.40
2022-09-23T10:42:21.867Z,7.10
2022-09-23T10:45:24.751Z,4.80
2022-09-23T10:48:05.724Z,4.50
2022-09-23T10:50:42.991Z,5.30
2022-09-23T10:53:24.062Z,6.80
2022-09-23T10:56:16.781Z,6.00
2022-09-23T10:59:09.206Z,5.10
2022-09-23T11:01:49.625Z,5.30
2022-09-23T11:04:41.742Z,5.50
2022-09-23T11:07:28.100Z,5.60
2022-09-23T11:10:29.284Z,7.50
2022-09-23T11:13:17.115Z,8.90
2022-09-23T11:16:00.875Z,7.90
2022-09-23T11:18:52.214Z,9.80
2022-09-23T11:21:39.534Z,9.10
2022-09-23T11:24:28.016Z,25.00
2022-09-23T11:27:09.078Z,10.10
2022-09-23T11:30:02.583Z,4.80
2022-09-23T11:32:52.649Z,6.30
2022-09-23T11:35:28.843Z,7.20
2022-09-23T11:38:12.340Z,7.90
2022-09-23T11:40:47.370Z,7.30
2022-09-23T11:43:23.476Z,6.40
2022-09-23T11:46:02.101Z,7.10
2022-09-23T11:48:41.272Z,8.30
2022-09-23T11:51:17.868Z,8.20
2022-09-23T11:53:54.721Z,6.50
2022-09-23T11:56:36.013Z,7.20
2022-09-23T11:59:17.072Z,7.50
2022-09-23T12:01:52.731Z,6.60
2022-09-23T12:04:31.177Z,6.70
2022-09-23T12:07:09.657Z,5.40
2022-09-23T12:09:58.819Z,6.40
2022-09-23T12:12:36.698Z,8.40
2022-09-23T12:15:20.325Z,6.40
2022-09-23T12:18:11.075Z,5.60
2022-09-23T12:20:54.771Z,8.40
2022-09-23T12:23:44.105Z,6.60
2022-09-23T12:26:20.110Z,12.00
2022-09-23T12:28:55.479Z,6.40
2022-09-23T12:31:33.066Z,9.10
2022-09-23T12:34:23.201Z,10.20
2022-09-23T12:36:54.717Z,7.00
2022-09-23T12:39:31.306Z,7.70
2022-09-23T12:42:04.219Z,6.60
2022-09-23T12:44:41.149Z,7.20
2022-09-23T12:47:39.025Z,5.80
2022-09-23T12:50:45.264Z,7.10
2022-09-23T12:53:54.650Z,6.10
2022-09-23T12:56:29.864Z,6.30
2022-09-23T12:59:21.669Z,6.60
2022-09-23T13:01:53.918Z,7.10
2022-09-23T13:05:01.508Z,6.80
2022-09-23T13:07:34.799Z,16.40
2022-09-23T13:10:16.533Z,10.90
2022-09-23T13:12:49.201Z,6.60
2022-09-23T13:15:28.691Z,7.50
2022-09-23T13:18:50.362Z,8.60
2022-09-23T13:22:13.675Z,6.00
2022-09-23T13:24:53.404Z,10.10
2022-09-23T13:27:31.183Z,7.40
2022-09-23T13:30:07.803Z,7.10
2022-09-23T13:32:46.011Z,6.00
2022-09-23T13:35:26.723Z,5.90
2022-09-23T13:37:58.286Z,6.80
2022-09-23T13:40:31.687Z,5.60
2022-09-23T13:43:06.466Z,5.50
2022-09-23T13:45:43.206Z,7.00
2022-09-23T13:48:16.544Z,5.70
2022-09-23T13:50:51.037Z,7.60
2022-09-23T13:53:27.367Z,5.50
2022-09-23T13:56:07.882Z,6.80
2022-09-23T13:58:40.225Z,8.90
2022-09-23T14:01:22.532Z,6.10
2022-09-23T14:03:54.104Z,7.10
2022-09-23T14:06:27.312Z,7.40
2022-09-23T14:09:02.298Z,7.10
2022-09-23T14:11:35.941Z,5.80
2022-09-23T14:14:14.515Z,5.10
2022-09-23T14:16:46.437Z,7.00
2022-09-23T14:19:21.067Z,8.00
2022-09-23T14:21:54.282Z,7.10
2022-09-23T14:24:32.500Z,7.40
2022-09-23T14:27:15.094Z,6.10
2022-09-23T14:29:49.326Z,6.60
2022-09-23T14:32:24.986Z,5.60
2022-09-23T14:35:17.025Z,6.20
2022-09-23T14:38:08.664Z,8.70
2022-09-23T14:43:23.189Z,6.30
2022-09-23T14:45:56.516Z,6.40
2022-09-23T14:48:31.638Z,6.40
2022-09-23T14:51:06.031Z,5.80
2022-09-23T14:53:40.858Z,6.80
2022-09-23T14:56:16.765Z,6.00
2022-09-23T14:58:53.033Z,6.50
2022-09-23T15:01:39.691Z,5.00
2022-09-23T15:04:18.178Z,7.00
2022-09-23T15:06:54.314Z,7.70
2022-09-23T15:09:29.795Z,10.70
2022-09-23T15:12:04.689Z,7.90
2022-09-23T15:14:41.268Z,5.60
2022-09-23T15:17:25.902Z,8.10
2022-09-23T15:19:59.728Z,7.50
2022-09-23T15:22:31.357Z,9.80
2022-09-23T15:25:18.784Z,11.40
2022-09-23T15:28:02.450Z,8.70
2022-09-23T15:30:35.956Z,10.30
2022-09-23T15:33:09.731Z,7.50
2022-09-23T15:35:49.190Z,7.90
2022-09-23T15:38:21.099Z,8.00
2022-09-23T15:40:52.654Z,10.30
2022-09-23T15:43:26.694Z,8.40
2022-09-23T15:46:01.090Z,8.00
2022-09-23T15:48:39.486Z,5.90
2022-09-23T15:51:15.227Z,7.00
2022-09-23T15:53:47.849Z,7.40
2022-09-23T15:56:19.341Z,8.60
2022-09-23T16:01:28.802Z,8.90
2022-09-23T16:04:01.769Z,6.60
2022-09-23T16:06:36.049Z,7.90
2022-09-23T16:09:08.246Z,11.60
2022-09-23T16:11:42.095Z,8.10
2022-09-23T16:14:16.567Z,11.90
2022-09-23T16:16:48.490Z,8.60
2022-09-23T16:19:20.070Z,8.60
2022-09-23T16:24:26.005Z,9.10
2022-09-23T16:27:03.451Z,10.30
2022-09-23T16:29:34.971Z,7.50
2022-09-23T16:34:36.489Z,8.90
2022-09-23T16:39:38.955Z,8.30
2022-09-23T16:42:10.913Z,15.70
2022-09-23T16:44:42.520Z,11.70
2022-09-23T16:47:14.244Z,8.40
2022-09-23T16:49:45.833Z,10.10
2022-09-23T16:54:52.442Z,11.80
2022-09-23T16:57:24.137Z,11.20
2022-09-23T17:00:13.769Z,13.50
2022-09-23T17:03:02.963Z,14.50
2022-09-23T17:05:34.688Z,16.00
2022-09-23T17:08:07.654Z,18.00
2022-09-23T17:10:39.190Z,17.80
2022-09-23T17:13:12.797Z,15.30
2022-09-23T17:15:45.103Z,15.50
2022-09-23T17:18:19.497Z,20.00
2022-09-23T17:21:02.053Z,16.60
2022-09-23T17:23:37.533Z,13.50
2022-09-23T17:26:09.821Z,13.90
2022-09-23T17:28:41.510Z,13.90
2022-09-23T17:31:13.264Z,13.10
2022-09-23T17:33:45.156Z,12.60
2022-09-23T17:36:19.625Z,14.90
2022-09-23T17:38:53.634Z,15.50
2022-09-23T17:41:25.619Z,22.50
2022-09-23T17:44:00.789Z,16.40
2022-09-23T17:46:32.604Z,15.80
2022-09-23T17:49:05.622Z,22.00
2022-09-23T17:51:37.600Z,14.40
2022-09-23T17:54:10.311Z,15.90
2022-09-23T17:56:42.518Z,14.70
2022-09-23T17:59:14.744Z,9.50
2022-09-23T18:01:46.738Z,12.10
2022-09-23T18:04:18.588Z,17.80
2022-09-23T18:06:51.494Z,18.20
2022-09-23T18:09:30.624Z,13.00
2022-09-23T18:12:02.871Z,11.00
2022-09-23T18:14:37.074Z,11.30
2022-09-23T18:17:09.596Z,13.20
2022-09-23T18:19:42.597Z,10.50
2022-09-23T18:22:15.146Z,10.80
2022-09-23T18:24:47.375Z,11.50
2022-09-23T18:27:19.296Z,15.30
2022-09-23T18:29:51.551Z,11.00
2022-09-23T18:32:23.324Z,10.80
2022-09-23T18:34:55.400Z,12.90
2022-09-23T18:37:27.707Z,14.00
2022-09-23T18:39:59.713Z,10.50
2022-09-23T18:42:32.348Z,12.90
2022-09-23T18:45:04.761Z,15.40
2022-09-23T18:47:54.179Z,14.00
2022-09-23T18:50:42.246Z,17.00
2022-09-23T18:53:14.106Z,12.30
2022-09-23T18:55:45.921Z,14.90
2022-09-23T18:58:17.829Z,13.40
2022-09-23T19:00:51.515Z,15.20
2022-09-23T19:03:23.452Z,13.00
2022-09-23T19:05:55.442Z,11.10
2022-09-23T19:08:27.327Z,11.90
2022-09-23T19:11:01.679Z,12.40
2022-09-23T19:13:35.065Z,10.30
2022-09-23T19:16:11.942Z,12.80
2022-09-23T19:18:46.469Z,13.90
2022-09-23T19:21:23.118Z,17.80
2022-09-23T19:23:57.328Z,13.80
2022-09-23T19:26:32.162Z,12.10
2022-09-23T19:29:06.336Z,14.60
2022-09-23T19:31:40.881Z,17.80
2022-09-23T19:34:17.812Z,13.70
2022-09-23T19:36:50.679Z,15.10
2022-09-23T19:39:24.406Z,13.10
2022-09-23T19:41:57.622Z,13.00
2022-09-23T19:44:32.628Z,12.40
2022-09-23T19:47:04.908Z,14.20
2022-09-23T19:49:36.714Z,13.40
2022-09-23T19:52:08.460Z,18.10
2022-09-23T19:54:40.606Z,26.50
2022-09-23T19:57:12.628Z,15.90
2022-09-23T19:59:45.601Z,17.30
2022-09-23T20:02:18.010Z,22.20
2022-09-23T20:04:51.949Z,17.20
2022-09-23T20:07:23.820Z,14.80
2022-09-23T20:09:56.376Z,15.30
2022-09-23T20:12:29.198Z,17.80
2022-09-23T20:15:01.215Z,18.90
2022-09-23T20:17:33.034Z,16.40
2022-09-23T20:20:05.483Z,21.00
2022-09-23T20:22:37.034Z,16.80
2022-09-23T20:25:13.455Z,19.20
2022-09-23T20:27:49.484Z,16.20
2022-09-23T20:30:21.727Z,23.20
2022-09-23T20:32:53.413Z,19.60
2022-09-23T20:37:55.231Z,18.10
2022-09-23T20:42:56.804Z,18.90
2022-09-23T20:45:28.261Z,17.40
2022-09-23T20:48:00.725Z,21.90
2022-09-23T20:50:32.213Z,17.40
2022-09-23T20:53:03.650Z,22.70
2022-09-23T20:55:35.291Z,18.80
2022-09-23T21:00:38.634Z,15.50
2022-09-23T21:03:10.389Z,18.40
2022-09-23T21:05:42.481Z,22.50
2022-09-23T21:08:13.999Z,18.00
2022-09-23T21:10:53.801Z,19.70
2022-09-23T21:13:25.736Z,18.40
2022-09-23T21:15:58.206Z,20.20
2022-09-23T21:18:29.892Z,21.80
2022-09-23T21:23:34.628Z,21.40
2022-09-23T21:26:08.084Z,20.10
2022-09-23T21:28:41.602Z,19.50
2022-09-23T21:31:22.629Z,19.80
2022-09-23T21:33:59.037Z,20.80
2022-09-23T21:36:32.722Z,18.40
2022-09-23T21:39:05.442Z,17.20
2022-09-23T21:41:37.744Z,21.60
2022-09-23T21:44:09.454Z,17.90
2022-09-23T21:49:11.075Z,24.50
2022-09-23T21:51:43.186Z,18.60
2022-09-23T21:54:17.510Z,21.00
2022-09-23T21:56:49.056Z,19.50
2022-09-23T21:59:20.476Z,16.50
2022-09-23T22:01:54.203Z,19.80
2022-09-23T22:04:26.023Z,18.40
2022-09-23T22:06:59.220Z,29.10
2022-09-23T22:09:30.998Z,21.30
2022-09-23T22:12:11.162Z,22.40
2022-09-23T22:14:43.349Z,25.20
2022-09-23T22:17:16.491Z,19.70
2022-09-23T22:19:48.785Z,21.20
2022-09-23T22:22:20.592Z,19.50
2022-09-23T22:24:52.318Z,19.50
2022-09-23T22:30:13.006Z,22.60
2022-09-23T22:32:52.812Z,21.00
2022-09-23T22:35:25.881Z,19.20
2022-09-23T22:37:57.340Z,17.30
2022-09-23T22:40:28.933Z,15.80
2022-09-23T22:45:30.418Z,17.70
2022-09-23T22:48:05.074Z,22.80
2022-09-23T22:50:39.682Z,19.10
2022-09-23T22:53:11.169Z,18.90
2022-09-23T22:55:43.009Z,16.90
2022-09-23T22:58:31.140Z,20.40
2022-09-23T23:01:03.581Z,16.90
2022-09-23T23:03:36.616Z,17.30
2022-09-23T23:06:10.599Z,16.40
2022-09-23T23:08:42.103Z,16.10
2022-09-23T23:11:13.660Z,14.90
2022-09-23T23:16:15.405Z,18.50
2022-09-23T23:18:47.708Z,18.50
2022-09-23T23:21:21.603Z,16.10
2022-09-23T23:23:54.168Z,18.20
2022-09-23T23:26:27.915Z,16.50
2022-09-23T23:28:59.870Z,15.70
2022-09-23T23:31:33.152Z,15.10
2022-09-23T23:34:04.725Z,21.70
2022-09-23T23:36:37.172Z,16.10
2022-09-23T23:39:08.964Z,16.00
2022-09-23T23:41:41.617Z,17.80
2022-09-23T23:44:14.823Z,14.80
2022-09-23T23:46:46.325Z,14.40
2022-09-23T23:51:48.021Z,16.20
2022-09-23T23:54:23.072Z,15.60
2022-09-23T23:56:55.212Z,15.00
2022-09-23T23:59:28.770Z,18.50
